Hayase Maru — JD2583 — position and weather

sailwx.info

Track history (hours):
 
Tides and Currents Weather Stations Pressure Air Temp Water Temp Dewpoint Dewpoint Depression Visibility Wind Speed Wind Dir Waves Ship Positions

Hayase Maru

Last reported at 2014-Aug-01 15:11 UTC. Time now 2014-Aug-01 16:02 UTC.
Position N 34°35' E 135°27'.

Length 73 m; draft 4.1 m.

Type: Ship. MMSI: 431000395.

Date/timePositionNaut miles runAvg speedWind from/ knotsBaromVisibWave heightAir tempDewpointWater temp
2014-Aug-01 15:11N 34°35' E 135°27'0 0.0
2014-Aug-01 14:23N 34°35' E 135°27'0 0.0
2014-Aug-01 13:23N 34°35' E 135°27'0 0.0
2014-Aug-01 06:14N 34°35' E 135°27'1 0.9
2014-Aug-01 05:31N 34°35' E 135°27'0 0.0
2014-Aug-01 04:31N 34°35' E 135°27'0 0.0
2014-Aug-01 03:25N 34°35' E 135°27'2 2.0
2014-Aug-01 02:33N 34°36' E 135°25'5 2.6
2014-Aug-01 00:33N 34°31' E 135°23'2 1.8
2014-Jul-31 23:31N 34°32' E 135°22'0 0.0
2014-Jul-31 22:31N 34°32' E 135°22'1 0.7
2014-Jul-31 21:33N 34°32' E 135°21'1010.4
2014-Jul-31 20:33N 34°26' E 135°11'12 9.7
2014-Jul-31 19:21N 34°16' E 135°03'4 4.6
2014-Jul-31 18:33N 34°15' E 135°07'0 0.0
2014-Jul-31 17:33N 34°15' E 135°07'0 0.0
2014-Jul-31 16:33N 34°15' E 135°07'0 0.0
2014-Jul-31 15:33N 34°15' E 135°07'0 0.0
2014-Jul-31 14:33N 34°15' E 135°07'0 0.0
2014-Jul-31 13:33N 34°15' E 135°07'0 0.1
2014-Jul-31 12:33N 34°15' E 135°07'0 0.0
2014-Jul-31 11:33N 34°15' E 135°07'0 0.0
2014-Jul-31 10:33N 34°15' E 135°07'0 0.0
2014-Jul-31 09:33N 34°15' E 135°07'0 0.0
2014-Jul-31 08:33N 34°15' E 135°07'1 0.6
2014-Jul-31 07:33N 34°15' E 135°06'0 0.0
2014-Jul-31 06:30N 34°15' E 135°06'0 0.0
2014-Jul-31 05:30N 34°15' E 135°06'0 0.0
2014-Jul-31 04:30N 34°15' E 135°06'0 0.0
2014-Jul-31 03:33N 34°15' E 135°06'0 0.0
2014-Jul-31 02:33N 34°15' E 135°06'0 0.0
2014-Jul-31 01:24N 34°15' E 135°06'0 0.1
2014-Jul-31 00:30N 34°15' E 135°06'0 0.0
2014-Jul-30 23:33N 34°15' E 135°06'0 0.0
2014-Jul-30 22:33N 34°15' E 135°06'0 0.0
2014-Jul-30 21:33N 34°15' E 135°06'0 0.0
2014-Jul-30 20:33N 34°15' E 135°06'7 6.8
2014-Jul-30 19:33N 34°21' E 135°05'1313.3
2014-Jul-30 18:33N 34°31' E 135°16'1010.2
2014-Jul-30 17:34N 34°35' E 135°27'0 0.0
2014-Jul-30 16:25N 34°35' E 135°27'0 0.0
2014-Jul-30 14:25N 34°35' E 135°27'0 0.0
2014-Jul-30 11:25N 34°35' E 135°27'0 0.0
2014-Jul-30 10:07N 34°35' E 135°27'2 4.4
2014-Jul-30 09:33N 34°36' E 135°24'10 9.7
2014-Jul-30 08:33N 34°30' E 135°15'1110.9
2014-Jul-30 07:33N 34°22' E 135°06'8 7.8
2014-Jul-30 06:33N 34°14' E 135°07'0 0.5
2014-Jul-30 05:32N 34°15' E 135°07'0 0.0
2014-Jul-30 04:32N 34°15' E 135°07'0 0.0
2014-Jul-30 03:32N 34°15' E 135°07'0 0.0
2014-Jul-30 02:26N 34°15' E 135°07'0 0.0
2014-Jul-30 01:29N 34°15' E 135°07'0 0.1
2014-Jul-30 00:32N 34°15' E 135°07'0 0.0
2014-Jul-29 23:32N 34°15' E 135°07'1 0.6
2014-Jul-29 22:33N 34°14' E 135°07'1 0.5
2014-Jul-29 21:32N 34°15' E 135°06'0 0.0
2014-Jul-29 20:32N 34°15' E 135°06'0 0.0
2014-Jul-29 19:32N 34°15' E 135°06'0 0.0
2014-Jul-29 18:32N 34°15' E 135°06'0 0.0
2014-Jul-29 17:32N 34°15' E 135°06'0 0.0
2014-Jul-29 16:33N 34°15' E 135°06'8 8.1
2014-Jul-29 15:32N 34°21' E 134°60'1212.3
2014-Jul-29 14:33N 34°29' E 135°11'1312.8
2014-Jul-29 13:33N 34°36' E 135°23'4 0.9
2014-Jul-29 09:31N 34°35' E 135°27'0 0.0
2014-Jul-29 07:13N 34°35' E 135°27'0 0.0
2014-Jul-29 05:31N 34°35' E 135°27'0 0.0
2014-Jul-29 04:19N 34°35' E 135°27'0 0.0
2014-Jul-29 03:19N 34°35' E 135°27'0 0.0
2014-Jul-29 02:25N 34°35' E 135°27'3 3.9
2014-Jul-29 01:33N 34°36' E 135°23'1 0.5
2014-Jul-29 00:30N 34°36' E 135°23'0 0.0
2014-Jul-28 23:24N 34°36' E 135°23'0 0.0
2014-Jul-28 22:30N 34°36' E 135°23'0 0.0
2014-Jul-28 21:24N 34°36' E 135°23'0 0.0
2014-Jul-28 20:30N 34°36' E 135°23'0 0.0
2014-Jul-28 19:30N 34°36' E 135°23'0 0.0
2014-Jul-28 18:30N 34°36' E 135°23'0 0.0
2014-Jul-28 17:30N 34°36' E 135°23'2 1.9
2014-Jul-28 16:33N 34°35' E 135°21'1110.6
2014-Jul-28 15:33N 34°27' E 135°12'1110.7
2014-Jul-28 14:33N 34°19' E 135°04'5 4.8
2014-Jul-28 13:32N 34°15' E 135°07'0 0.0
2014-Jul-28 12:32N 34°15' E 135°07'0 0.0
2014-Jul-28 11:32N 34°15' E 135°07'0 0.0
2014-Jul-28 10:32N 34°15' E 135°07'0 0.0
2014-Jul-28 09:32N 34°15' E 135°07'0 0.0
2014-Jul-28 08:29N 34°15' E 135°07'0 0.0
2014-Jul-28 07:32N 34°15' E 135°07'0 0.0
2014-Jul-28 06:32N 34°15' E 135°07'0 0.0
2014-Jul-28 05:32N 34°15' E 135°07'0 0.0
2014-Jul-28 04:32N 34°15' E 135°07'1 1.2
2014-Jul-28 03:33N 34°15' E 135°06'0 0.0
2014-Jul-28 02:34N 34°15' E 135°06'0 0.0
2014-Jul-28 01:31N 34°15' E 135°06'0 0.0
2014-Jul-28 00:33N 34°15' E 135°06'0 0.1
2014-Jul-27 23:31N 34°15' E 135°06'0 0.0
2014-Jul-27 22:33N 34°15' E 135°06'0 0.0
2014-Jul-27 21:33N 34°15' E 135°06'3 2.7
2014-Jul-27 20:32N 34°15' E 135°02'1111.3
2014-Jul-27 19:33N 34°26' E 135°01'1110.8
2014-Jul-27 18:33N 34°37' E 135°00'  
2014-Jul-24 13:33N 34°40' E 134°47'1211.3
2014-Jul-24 12:30N 34°37' E 135°01'1010.4
2014-Jul-24 11:33N 34°28' E 135°03'1312.9
2014-Jul-24 10:33N 34°15' E 134°60'1312.4
2014-Jul-24 09:30N 34°02' E 135°01'219 9.4
2014-Jul-23 10:18N 34°52' E 139°19'8 9.7
2014-Jul-23 09:31N 34°57' E 139°26'1010.0
2014-Jul-23 08:34N 35°03' E 139°36'1110.7
2014-Jul-23 07:34N 35°11' E 139°45'1010.0
2014-Jul-23 06:34N 35°20' E 139°42'1010.3
2014-Jul-23 05:34N 35°30' E 139°48'3 2.6
2014-Jul-23 04:33N 35°31' E 139°45'0 0.0
2014-Jul-23 03:33N 35°31' E 139°45'0 0.0
2014-Jul-23 02:33N 35°31' E 139°45'0 0.0
2014-Jul-23 01:33N 35°31' E 139°45'0 0.0
2014-Jul-23 00:33N 35°31' E 139°45'0 0.0
2014-Jul-22 23:33N 35°31' E 139°45'0 0.0
2014-Jul-22 22:33N 35°31' E 139°45'0 0.0
2014-Jul-22 21:33N 35°31' E 139°45'0 0.0
2014-Jul-22 20:33N 35°31' E 139°45'0 0.0
2014-Jul-22 19:33N 35°31' E 139°45'0 0.0
2014-Jul-22 18:33N 35°31' E 139°45'0 0.0
2014-Jul-22 17:33N 35°31' E 139°45'0 0.0
2014-Jul-22 16:33N 35°31' E 139°45'0 0.0
2014-Jul-22 15:27N 35°31' E 139°45'  
Track history (hours):
 
Tides and Currents Weather Stations Pressure Air Temp Water Temp Dewpoint Dewpoint Depression Visibility Wind Speed Wind Dir Waves Ship Positions

Hayase Maru

Last reported at 2014-Aug-01 15:11 UTC. Time now 2014-Aug-01 16:02 UTC.
Position N 34°35' E 135°27'.

Length 73 m; draft 4.1 m.

Type: Ship. MMSI: 431000395.

Date/timePositionNaut miles runAvg speedWind from/ knotsBaromVisibWave heightAir tempDewpointWater temp
2014-Aug-01 15:11N 34°35' E 135°27'0 0.0
2014-Aug-01 14:23N 34°35' E 135°27'0 0.0
2014-Aug-01 13:23N 34°35' E 135°27'0 0.0
2014-Aug-01 06:14N 34°35' E 135°27'1 0.9
2014-Aug-01 05:31N 34°35' E 135°27'0 0.0
2014-Aug-01 04:31N 34°35' E 135°27'0 0.0
2014-Aug-01 03:25N 34°35' E 135°27'2 2.0
2014-Aug-01 02:33N 34°36' E 135°25'5 2.6
2014-Aug-01 00:33N 34°31' E 135°23'2 1.8
2014-Jul-31 23:31N 34°32' E 135°22'0 0.0
2014-Jul-31 22:31N 34°32' E 135°22'1 0.7
2014-Jul-31 21:33N 34°32' E 135°21'1010.4
2014-Jul-31 20:33N 34°26' E 135°11'12 9.7
2014-Jul-31 19:21N 34°16' E 135°03'4 4.6
2014-Jul-31 18:33N 34°15' E 135°07'0 0.0
2014-Jul-31 17:33N 34°15' E 135°07'0 0.0
2014-Jul-31 16:33N 34°15' E 135°07'0 0.0
2014-Jul-31 15:33N 34°15' E 135°07'0 0.0
2014-Jul-31 14:33N 34°15' E 135°07'0 0.0
2014-Jul-31 13:33N 34°15' E 135°07'0 0.1
2014-Jul-31 12:33N 34°15' E 135°07'0 0.0
2014-Jul-31 11:33N 34°15' E 135°07'0 0.0
2014-Jul-31 10:33N 34°15' E 135°07'0 0.0
2014-Jul-31 09:33N 34°15' E 135°07'0 0.0
2014-Jul-31 08:33N 34°15' E 135°07'1 0.6
2014-Jul-31 07:33N 34°15' E 135°06'0 0.0
2014-Jul-31 06:30N 34°15' E 135°06'0 0.0
2014-Jul-31 05:30N 34°15' E 135°06'0 0.0
2014-Jul-31 04:30N 34°15' E 135°06'0 0.0
2014-Jul-31 03:33N 34°15' E 135°06'0 0.0
2014-Jul-31 02:33N 34°15' E 135°06'0 0.0
2014-Jul-31 01:24N 34°15' E 135°06'0 0.1
2014-Jul-31 00:30N 34°15' E 135°06'0 0.0
2014-Jul-30 23:33N 34°15' E 135°06'0 0.0
2014-Jul-30 22:33N 34°15' E 135°06'0 0.0
2014-Jul-30 21:33N 34°15' E 135°06'0 0.0
2014-Jul-30 20:33N 34°15' E 135°06'7 6.8
2014-Jul-30 19:33N 34°21' E 135°05'1313.3
2014-Jul-30 18:33N 34°31' E 135°16'1010.2
2014-Jul-30 17:34N 34°35' E 135°27'0 0.0
2014-Jul-30 16:25N 34°35' E 135°27'0 0.0
2014-Jul-30 14:25N 34°35' E 135°27'0 0.0
2014-Jul-30 11:25N 34°35' E 135°27'0 0.0
2014-Jul-30 10:07N 34°35' E 135°27'2 4.4
2014-Jul-30 09:33N 34°36' E 135°24'10 9.7
2014-Jul-30 08:33N 34°30' E 135°15'1110.9
2014-Jul-30 07:33N 34°22' E 135°06'8 7.8
2014-Jul-30 06:33N 34°14' E 135°07'0 0.5
2014-Jul-30 05:32N 34°15' E 135°07'0 0.0
2014-Jul-30 04:32N 34°15' E 135°07'0 0.0
2014-Jul-30 03:32N 34°15' E 135°07'0 0.0
2014-Jul-30 02:26N 34°15' E 135°07'0 0.0
2014-Jul-30 01:29N 34°15' E 135°07'0 0.1
2014-Jul-30 00:32N 34°15' E 135°07'0 0.0
2014-Jul-29 23:32N 34°15' E 135°07'1 0.6
2014-Jul-29 22:33N 34°14' E 135°07'1 0.5
2014-Jul-29 21:32N 34°15' E 135°06'0 0.0
2014-Jul-29 20:32N 34°15' E 135°06'0 0.0
2014-Jul-29 19:32N 34°15' E 135°06'0 0.0
2014-Jul-29 18:32N 34°15' E 135°06'0 0.0
2014-Jul-29 17:32N 34°15' E 135°06'0 0.0
2014-Jul-29 16:33N 34°15' E 135°06'8 8.1
2014-Jul-29 15:32N 34°21' E 134°60'1212.3
2014-Jul-29 14:33N 34°29' E 135°11'1312.8
2014-Jul-29 13:33N 34°36' E 135°23'4 0.9
2014-Jul-29 09:31N 34°35' E 135°27'0 0.0
2014-Jul-29 07:13N 34°35' E 135°27'0 0.0
2014-Jul-29 05:31N 34°35' E 135°27'0 0.0
2014-Jul-29 04:19N 34°35' E 135°27'0 0.0
2014-Jul-29 03:19N 34°35' E 135°27'0 0.0
2014-Jul-29 02:25N 34°35' E 135°27'3 3.9
2014-Jul-29 01:33N 34°36' E 135°23'1 0.5
2014-Jul-29 00:30N 34°36' E 135°23'0 0.0
2014-Jul-28 23:24N 34°36' E 135°23'0 0.0
2014-Jul-28 22:30N 34°36' E 135°23'0 0.0
2014-Jul-28 21:24N 34°36' E 135°23'0 0.0
2014-Jul-28 20:30N 34°36' E 135°23'0 0.0
2014-Jul-28 19:30N 34°36' E 135°23'0 0.0
2014-Jul-28 18:30N 34°36' E 135°23'0 0.0
2014-Jul-28 17:30N 34°36' E 135°23'2 1.9
2014-Jul-28 16:33N 34°35' E 135°21'1110.6
2014-Jul-28 15:33N 34°27' E 135°12'1110.7
2014-Jul-28 14:33N 34°19' E 135°04'5 4.8
2014-Jul-28 13:32N 34°15' E 135°07'0 0.0
2014-Jul-28 12:32N 34°15' E 135°07'0 0.0
2014-Jul-28 11:32N 34°15' E 135°07'0 0.0
2014-Jul-28 10:32N 34°15' E 135°07'0 0.0
2014-Jul-28 09:32N 34°15' E 135°07'0 0.0
2014-Jul-28 08:29N 34°15' E 135°07'0 0.0
2014-Jul-28 07:32N 34°15' E 135°07'0 0.0
2014-Jul-28 06:32N 34°15' E 135°07'0 0.0
2014-Jul-28 05:32N 34°15' E 135°07'0 0.0
2014-Jul-28 04:32N 34°15' E 135°07'1 1.2
2014-Jul-28 03:33N 34°15' E 135°06'0 0.0
2014-Jul-28 02:34N 34°15' E 135°06'0 0.0
2014-Jul-28 01:31N 34°15' E 135°06'0 0.0
2014-Jul-28 00:33N 34°15' E 135°06'0 0.1
2014-Jul-27 23:31N 34°15' E 135°06'0 0.0
2014-Jul-27 22:33N 34°15' E 135°06'0 0.0
2014-Jul-27 21:33N 34°15' E 135°06'3 2.7
2014-Jul-27 20:32N 34°15' E 135°02'1111.3
2014-Jul-27 19:33N 34°26' E 135°01'1110.8
2014-Jul-27 18:33N 34°37' E 135°00'  
2014-Jul-24 13:33N 34°40' E 134°47'1211.3
2014-Jul-24 12:30N 34°37' E 135°01'1010.4
2014-Jul-24 11:33N 34°28' E 135°03'1312.9
2014-Jul-24 10:33N 34°15' E 134°60'1312.4
2014-Jul-24 09:30N 34°02' E 135°01'219 9.4
2014-Jul-23 10:18N 34°52' E 139°19'8 9.7
2014-Jul-23 09:31N 34°57' E 139°26'1010.0
2014-Jul-23 08:34N 35°03' E 139°36'1110.7
2014-Jul-23 07:34N 35°11' E 139°45'1010.0
2014-Jul-23 06:34N 35°20' E 139°42'1010.3
2014-Jul-23 05:34N 35°30' E 139°48'3 2.6
2014-Jul-23 04:33N 35°31' E 139°45'0 0.0
2014-Jul-23 03:33N 35°31' E 139°45'0 0.0
2014-Jul-23 02:33N 35°31' E 139°45'0 0.0
2014-Jul-23 01:33N 35°31' E 139°45'0 0.0
2014-Jul-23 00:33N 35°31' E 139°45'0 0.0
2014-Jul-22 23:33N 35°31' E 139°45'0 0.0
2014-Jul-22 22:33N 35°31' E 139°45'0 0.0
2014-Jul-22 21:33N 35°31' E 139°45'0 0.0
2014-Jul-22 20:33N 35°31' E 139°45'0 0.0
2014-Jul-22 19:33N 35°31' E 139°45'0 0.0
2014-Jul-22 18:33N 35°31' E 139°45'0 0.0
2014-Jul-22 17:33N 35°31' E 139°45'0 0.0
2014-Jul-22 16:33N 35°31' E 139°45'0 0.0
2014-Jul-22 15:27N 35°31' E 139°45'  

Dump ship's entire track history